EGDM 020650Z AUTO 35007KT 5000 RA OVC066/// 12/11 Q1018
From batch tds/metars/production/2022/10/2/h07_m20_metars.cache.csv.gz
Observed at (about 1 hour ago)
Identifier EGDM
EGDM 020550Z AUTO 31004KT 9999 -RA OVC071/// 13/12 Q1017
From batch tds/metars/production/2022/10/2/h06_m21_metars.cache.csv.gz
Observed at (about 2 hours ago)
Identifier EGDM
EGDM 020520Z AUTO 26005KT 9999 -RA OVC072/// 13/12 Q1016
From batch tds/metars/production/2022/10/2/h05_m49_metars.cache.csv.gz
Observed at (about 2 hours ago)
Identifier EGDM
EGDM 020450Z AUTO 27003KT 9999 -RA OVC071/// 13/12 Q1016
From batch tds/metars/production/2022/10/2/h05_m24_metars.cache.csv.gz
Observed at (about 3 hours ago)
Identifier EGDM
EGDM 020250Z AUTO 25007KT 9999 -RA OVC076/// 13/12 Q1016
From batch tds/metars/production/2022/10/2/h03_m29_metars.cache.csv.gz
Observed at (about 5 hours ago)
Identifier EGDM
EGDM 020220Z AUTO 25006KT 9999 -RA OVC086/// 13/12 Q1016
From batch tds/metars/production/2022/10/2/h02_m59_metars.cache.csv.gz
Observed at (about 5 hours ago)
Identifier EGDM
EGDM 020150Z AUTO 24008KT 9999 OVC085/// 13/12 Q1016
From batch tds/metars/production/2022/10/2/h02_m29_metars.cache.csv.gz
Observed at (about 6 hours ago)
Identifier EGDM
EGDM 020050Z AUTO 24008KT 9999 // OVC084/// 13/12 Q1015
From batch tds/metars/production/2022/10/2/h01_m29_metars.cache.csv.gz
Observed at (about 7 hours ago)
Identifier EGDM
EGDM 012350Z AUTO 25010KT 9999 OVC081/// 13/12 Q1015
From batch tds/metars/production/2022/10/2/h00_m21_metars.cache.csv.gz
Observed at (about 8 hours ago)
Identifier EGDM
EGDM 012320Z AUTO 24009KT 9999 // OVC085/// 13/11 Q1015
From batch tds/metars/production/2022/10/1/h23_m51_metars.cache.csv.gz
Observed at (about 8 hours ago)
Identifier EGDM
EGDM 012220Z AUTO 24008KT 9999 -RA OVC065/// 13/12 Q1015
From batch tds/metars/production/2022/10/1/h22_m59_metars.cache.csv.gz
Observed at (about 9 hours ago)
Identifier EGDM
EGDM 012150Z AUTO 24010KT 9999 -RA OVC083/// 14/12 Q1015
From batch tds/metars/production/2022/10/1/h22_m22_metars.cache.csv.gz
Observed at (about 10 hours ago)
Identifier EGDM
EGDM 012120Z AUTO 24010KT 9999 -RA OVC070/// 14/12 Q1014
From batch tds/metars/production/2022/10/1/h21_m52_metars.cache.csv.gz
Observed at (about 10 hours ago)
Identifier EGDM
EGDM 011920Z AUTO 25012KT 9999 OVC120/// 14/11 Q1013
From batch tds/metars/production/2022/10/1/h19_m51_metars.cache.csv.gz
Observed at (about 12 hours ago)
Identifier EGDM
EGDM 011850Z AUTO 25011KT 9999 OVC130/// 14/11 Q1013
From batch tds/metars/production/2022/10/1/h19_m26_metars.cache.csv.gz
Observed at (about 13 hours ago)
Identifier EGDM
EGDM 011820Z AUTO 25012KT 9999 OVC150/// 14/11 Q1012
From batch tds/metars/production/2022/10/1/h18_m51_metars.cache.csv.gz
Observed at (about 13 hours ago)
Identifier EGDM
EGDM 011720Z AUTO 26010KT 9999 OVC052/// 16/11 Q1012
From batch tds/metars/production/2022/10/1/h17_m58_metars.cache.csv.gz
Observed at (about 14 hours ago)
Identifier EGDM
EGDM 011650Z AUTO 27010KT 9999 OVC064/// 16/11 Q1011
From batch tds/metars/production/2022/10/1/h17_m24_metars.cache.csv.gz
Observed at (about 15 hours ago)
Identifier EGDM
EGDM 011620Z AUTO 27009KT 9999 BKN069/// 17/11 Q1011
From batch tds/metars/production/2022/10/1/h16_m56_metars.cache.csv.gz
Observed at (about 15 hours ago)
Identifier EGDM
EGDM 011450Z AUTO 28016KT 9999 FEW031/// 18/10 Q1010
From batch tds/metars/production/2022/10/1/h15_m21_metars.cache.csv.gz
Observed at (about 17 hours ago)
Identifier EGDM
EGDM 011250Z AUTO 28016KT 9999 SCT055/// 18/11 Q1009
From batch tds/metars/production/2022/10/1/h13_m21_metars.cache.csv.gz
Observed at (about 19 hours ago)
Identifier EGDM
EGDM 011150Z AUTO 28015KT 9999 OVC025/// 17/11 Q1009
From batch tds/metars/production/2022/10/1/h12_m23_metars.cache.csv.gz
Observed at (about 20 hours ago)
Identifier EGDM
EGDM 011050Z AUTO 27014KT 9999 OVC020/// 16/12 Q1008
From batch tds/metars/production/2022/10/1/h11_m19_metars.cache.csv.gz
Observed at (about 21 hours ago)
Identifier EGDM
EGDM 011020Z AUTO 27015KT 9999 SCT018/// 16/12 Q1008
From batch tds/metars/production/2022/10/1/h10_m54_metars.cache.csv.gz
Observed at (about 21 hours ago)
Identifier EGDM
EGDM 010950Z AUTO 26011KT 9999 BKN015/// 15/12 Q1008
From batch tds/metars/production/2022/10/1/h10_m25_metars.cache.csv.gz
Observed at (about 22 hours ago)
Identifier EGDM
EGDM 010920Z AUTO 27011KT 9999 FEW018/// 15/12 Q1007
From batch tds/metars/production/2022/10/1/h09_m50_metars.cache.csv.gz
Observed at (about 22 hours ago)
Identifier EGDM
EGDM 010850Z AUTO 27012KT 9999 SCT014/// 14/12 Q1007
From batch tds/metars/production/2022/10/1/h09_m19_metars.cache.csv.gz
Observed at (about 23 hours ago)
Identifier EGDM
talk